sensor_id;sensor_type;location;lat;lon;timestamp;P1;durP1;ratioP1;P2;durP2;ratioP2
20154;SDS011;10238;49.556;10.956;2023-03-03T00:00:36;22.40;;;12.98;;
20154;SDS011;10238;49.556;10.956;2023-03-03T00:03:24;21.83;;;13.52;;
20154;SDS011;10238;49.556;10.956;2023-03-03T00:06:13;23.95;;;12.88;;
20154;SDS011;10238;49.556;10.956;2023-03-03T00:09:01;25.75;;;13.82;;
20154;SDS011;10238;49.556;10.956;2023-03-03T00:11:49;23.30;;;12.57;;
20154;SDS011;10238;49.556;10.956;2023-03-03T00:14:44;23.77;;;13.00;;
20154;SDS011;10238;49.556;10.956;2023-03-03T00:17:32;24.67;;;13.50;;
20154;SDS011;10238;49.556;10.956;2023-03-03T00:20:30;23.95;;;13.13;;
20154;SDS011;10238;49.556;10.956;2023-03-03T00:23:33;26.17;;;13.68;;
20154;SDS011;10238;49.556;10.956;2023-03-03T00:26:24;23.65;;;12.35;;
20154;SDS011;10238;49.556;10.956;2023-03-03T00:29:22;23.45;;;13.57;;
20154;SDS011;10238;49.556;10.956;2023-03-03T00:32:20;24.58;;;13.02;;
20154;SDS011;10238;49.556;10.956;2023-03-03T00:35:18;23.65;;;13.18;;
20154;SDS011;10238;49.556;10.956;2023-03-03T00:38:11;25.30;;;12.93;;
20154;SDS011;10238;49.556;10.956;2023-03-03T00:41:03;23.67;;;12.40;;
20154;SDS011;10238;49.556;10.956;2023-03-03T00:44:03;24.00;;;12.25;;
20154;SDS011;10238;49.556;10.956;2023-03-03T00:50:24;24.17;;;12.15;;
20154;SDS011;10238;49.556;10.956;2023-03-03T00:53:14;26.38;;;13.30;;
20154;SDS011;10238;49.556;10.956;2023-03-03T00:56:03;23.58;;;12.65;;
20154;SDS011;10238;49.556;10.956;2023-03-03T00:58:51;27.42;;;13.73;;
20154;SDS011;10238;49.556;10.956;2023-03-03T01:01:39;21.60;;;12.95;;
20154;SDS011;10238;49.556;10.956;2023-03-03T01:04:29;28.58;;;14.68;;
20154;SDS011;10238;49.556;10.956;2023-03-03T01:07:17;27.02;;;13.27;;
20154;SDS011;10238;49.556;10.956;2023-03-03T01:10:05;24.05;;;12.52;;
20154;SDS011;10238;49.556;10.956;2023-03-03T01:12:54;23.50;;;12.05;;
20154;SDS011;10238;49.556;10.956;2023-03-03T01:15:42;25.17;;;12.68;;
20154;SDS011;10238;49.556;10.956;2023-03-03T01:18:31;23.92;;;12.70;;
20154;SDS011;10238;49.556;10.956;2023-03-03T01:21:20;23.48;;;12.52;;
20154;SDS011;10238;49.556;10.956;2023-03-03T01:24:08;25.63;;;12.45;;
20154;SDS011;10238;49.556;10.956;2023-03-03T01:26:56;24.55;;;13.10;;
20154;SDS011;10238;49.556;10.956;2023-03-03T01:29:44;23.02;;;12.43;;
20154;SDS011;10238;49.556;10.956;2023-03-03T01:32:33;25.83;;;12.63;;
20154;SDS011;10238;49.556;10.956;2023-03-03T01:35:20;25.48;;;13.52;;
20154;SDS011;10238;49.556;10.956;2023-03-03T01:38:10;25.50;;;12.07;;
20154;SDS011;10238;49.556;10.956;2023-03-03T01:40:58;25.30;;;12.57;;
20154;SDS011;10238;49.556;10.956;2023-03-03T01:43:47;27.65;;;13.15;;
20154;SDS011;10238;49.556;10.956;2023-03-03T01:46:46;26.88;;;12.68;;
20154;SDS011;10238;49.556;10.956;2023-03-03T01:49:40;23.20;;;12.02;;
20154;SDS011;10238;49.556;10.956;2023-03-03T01:52:32;24.08;;;12.27;;
20154;SDS011;10238;49.556;10.956;2023-03-03T01:55:25;23.05;;;11.32;;
20154;SDS011;10238;49.556;10.956;2023-03-03T01:58:19;21.88;;;11.32;;
20154;SDS011;10238;49.556;10.956;2023-03-03T02:01:11;24.70;;;12.30;;
20154;SDS011;10238;49.556;10.956;2023-03-03T02:04:03;17.03;;;9.83;;
20154;SDS011;10238;49.556;10.956;2023-03-03T02:06:53;24.92;;;11.98;;
20154;SDS011;10238;49.556;10.956;2023-03-03T02:09:45;22.85;;;12.23;;
20154;SDS011;10238;49.556;10.956;2023-03-03T02:12:42;22.63;;;12.45;;
20154;SDS011;10238;49.556;10.956;2023-03-03T02:15:33;25.60;;;12.67;;
20154;SDS011;10238;49.556;10.956;2023-03-03T02:18:21;21.10;;;12.15;;
20154;SDS011;10238;49.556;10.956;2023-03-03T02:21:10;26.48;;;12.25;;
20154;SDS011;10238;49.556;10.956;2023-03-03T02:24:02;26.23;;;12.68;;
20154;SDS011;10238;49.556;10.956;2023-03-03T02:26:56;21.50;;;11.88;;
20154;SDS011;10238;49.556;10.956;2023-03-03T02:29:44;24.33;;;12.77;;
20154;SDS011;10238;49.556;10.956;2023-03-03T02:32:32;27.85;;;13.07;;
20154;SDS011;10238;49.556;10.956;2023-03-03T02:35:31;21.02;;;11.77;;
20154;SDS011;10238;49.556;10.956;2023-03-03T02:38:21;24.30;;;11.75;;
20154;SDS011;10238;49.556;10.956;2023-03-03T02:44:06;25.10;;;11.73;;
20154;SDS011;10238;49.556;10.956;2023-03-03T02:46:57;24.77;;;13.02;;
20154;SDS011;10238;49.556;10.956;2023-03-03T02:49:45;25.00;;;12.32;;
20154;SDS011;10238;49.556;10.956;2023-03-03T02:52:33;29.38;;;12.10;;
20154;SDS011;10238;49.556;10.956;2023-03-03T02:55:22;25.35;;;12.60;;
20154;SDS011;10238;49.556;10.956;2023-03-03T02:58:10;25.48;;;13.32;;
20154;SDS011;10238;49.556;10.956;2023-03-03T03:00:59;25.30;;;13.00;;
20154;SDS011;10238;49.556;10.956;2023-03-03T03:03:47;26.17;;;13.35;;
20154;SDS011;10238;49.556;10.956;2023-03-03T03:06:36;23.17;;;12.40;;
20154;SDS011;10238;49.556;10.956;2023-03-03T03:09:24;22.20;;;12.93;;
20154;SDS011;10238;49.556;10.956;2023-03-03T03:12:13;24.20;;;12.70;;
20154;SDS011;10238;49.556;10.956;2023-03-03T03:15:04;23.17;;;12.60;;
20154;SDS011;10238;49.556;10.956;2023-03-03T03:17:55;26.50;;;12.73;;
20154;SDS011;10238;49.556;10.956;2023-03-03T03:20:43;23.52;;;11.95;;
20154;SDS011;10238;49.556;10.956;2023-03-03T03:23:33;25.55;;;12.65;;
20154;SDS011;10238;49.556;10.956;2023-03-03T03:26:21;23.73;;;12.55;;
20154;SDS011;10238;49.556;10.956;2023-03-03T03:29:09;21.20;;;12.23;;
20154;SDS011;10238;49.556;10.956;2023-03-03T03:31:57;21.30;;;12.23;;
20154;SDS011;10238;49.556;10.956;2023-03-03T03:34:47;25.35;;;12.32;;
20154;SDS011;10238;49.556;10.956;2023-03-03T03:37:35;24.33;;;11.88;;
20154;SDS011;10238;49.556;10.956;2023-03-03T03:40:23;27.65;;;12.68;;
20154;SDS011;10238;49.556;10.956;2023-03-03T03:43:11;23.58;;;12.32;;
20154;SDS011;10238;49.556;10.956;2023-03-03T03:45:59;23.05;;;11.75;;
20154;SDS011;10238;49.556;10.956;2023-03-03T03:48:47;25.75;;;13.40;;
20154;SDS011;10238;49.556;10.956;2023-03-03T03:51:37;25.65;;;12.30;;
20154;SDS011;10238;49.556;10.956;2023-03-03T03:54:26;24.63;;;12.02;;
20154;SDS011;10238;49.556;10.956;2023-03-03T03:57:14;29.88;;;12.55;;
20154;SDS011;10238;49.556;10.956;2023-03-03T04:00:02;22.00;;;11.75;;
20154;SDS011;10238;49.556;10.956;2023-03-03T04:02:51;22.95;;;11.85;;
20154;SDS011;10238;49.556;10.956;2023-03-03T04:05:39;25.63;;;12.80;;
20154;SDS011;10238;49.556;10.956;2023-03-03T04:08:28;25.90;;;12.60;;
20154;SDS011;10238;49.556;10.956;2023-03-03T04:11:16;27.40;;;12.88;;
20154;SDS011;10238;49.556;10.956;2023-03-03T04:14:04;22.95;;;12.25;;
20154;SDS011;10238;49.556;10.956;2023-03-03T04:16:52;24.63;;;12.20;;
20154;SDS011;10238;49.556;10.956;2023-03-03T04:19:40;23.00;;;11.75;;
20154;SDS011;10238;49.556;10.956;2023-03-03T04:22:28;26.15;;;12.27;;
20154;SDS011;10238;49.556;10.956;2023-03-03T04:25:19;21.90;;;12.02;;
20154;SDS011;10238;49.556;10.956;2023-03-03T04:28:07;25.42;;;12.43;;
20154;SDS011;10238;49.556;10.956;2023-03-03T04:30:55;28.33;;;12.70;;
20154;SDS011;10238;49.556;10.956;2023-03-03T04:33:43;25.70;;;13.25;;
20154;SDS011;10238;49.556;10.956;2023-03-03T04:36:31;23.67;;;12.57;;
20154;SDS011;10238;49.556;10.956;2023-03-03T04:39:19;25.60;;;13.13;;
20154;SDS011;10238;49.556;10.956;2023-03-03T04:42:09;31.65;;;14.00;;
20154;SDS011;10238;49.556;10.956;2023-03-03T04:44:57;24.20;;;13.10;;
20154;SDS011;10238;49.556;10.956;2023-03-03T04:47:44;31.38;;;13.65;;
20154;SDS011;10238;49.556;10.956;2023-03-03T04:50:32;29.52;;;13.75;;
20154;SDS011;10238;49.556;10.956;2023-03-03T04:53:20;26.95;;;13.40;;
20154;SDS011;10238;49.556;10.956;2023-03-03T04:56:08;27.92;;;13.57;;
20154;SDS011;10238;49.556;10.956;2023-03-03T04:58:58;23.33;;;12.88;;
20154;SDS011;10238;49.556;10.956;2023-03-03T05:01:45;26.30;;;12.82;;
20154;SDS011;10238;49.556;10.956;2023-03-03T05:04:35;23.98;;;13.05;;
20154;SDS011;10238;49.556;10.956;2023-03-03T05:07:23;32.65;;;13.82;;
20154;SDS011;10238;49.556;10.956;2023-03-03T05:10:13;27.85;;;13.18;;
20154;SDS011;10238;49.556;10.956;2023-03-03T05:13:04;27.80;;;13.57;;
20154;SDS011;10238;49.556;10.956;2023-03-03T05:15:55;28.92;;;13.25;;
20154;SDS011;10238;49.556;10.956;2023-03-03T05:18:43;26.88;;;13.30;;
20154;SDS011;10238;49.556;10.956;2023-03-03T05:21:32;29.05;;;14.70;;
20154;SDS011;10238;49.556;10.956;2023-03-03T05:24:22;31.90;;;15.13;;
20154;SDS011;10238;49.556;10.956;2023-03-03T05:27:10;26.15;;;13.38;;
20154;SDS011;10238;49.556;10.956;2023-03-03T05:29:58;33.15;;;15.13;;
20154;SDS011;10238;49.556;10.956;2023-03-03T05:32:47;28.60;;;13.77;;
20154;SDS011;10238;49.556;10.956;2023-03-03T05:35:36;29.35;;;14.18;;
20154;SDS011;10238;49.556;10.956;2023-03-03T05:38:24;27.55;;;13.90;;
20154;SDS011;10238;49.556;10.956;2023-03-03T05:41:12;31.60;;;14.65;;
20154;SDS011;10238;49.556;10.956;2023-03-03T05:44:00;32.15;;;14.73;;
20154;SDS011;10238;49.556;10.956;2023-03-03T05:46:48;30.73;;;15.68;;
20154;SDS011;10238;49.556;10.956;2023-03-03T05:49:37;30.70;;;15.05;;
20154;SDS011;10238;49.556;10.956;2023-03-03T05:52:26;34.67;;;16.20;;
20154;SDS011;10238;49.556;10.956;2023-03-03T05:55:14;36.13;;;16.52;;
20154;SDS011;10238;49.556;10.956;2023-03-03T05:58:02;36.13;;;16.63;;
20154;SDS011;10238;49.556;10.956;2023-03-03T06:00:50;30.38;;;15.52;;
20154;SDS011;10238;49.556;10.956;2023-03-03T06:03:38;36.00;;;16.27;;
20154;SDS011;10238;49.556;10.956;2023-03-03T06:06:27;32.70;;;16.27;;
20154;SDS011;10238;49.556;10.956;2023-03-03T06:09:15;36.38;;;16.75;;
20154;SDS011;10238;49.556;10.956;2023-03-03T06:12:03;35.15;;;16.48;;
20154;SDS011;10238;49.556;10.956;2023-03-03T06:14:52;41.40;;;17.02;;
20154;SDS011;10238;49.556;10.956;2023-03-03T06:17:40;35.60;;;17.40;;
20154;SDS011;10238;49.556;10.956;2023-03-03T06:20:28;37.35;;;16.73;;
20154;SDS011;10238;49.556;10.956;2023-03-03T06:23:17;34.25;;;16.13;;
20154;SDS011;10238;49.556;10.956;2023-03-03T06:26:06;35.50;;;16.30;;
20154;SDS011;10238;49.556;10.956;2023-03-03T06:28:54;42.15;;;16.48;;
20154;SDS011;10238;49.556;10.956;2023-03-03T06:31:42;37.70;;;16.25;;
20154;SDS011;10238;49.556;10.956;2023-03-03T06:34:36;41.72;;;17.95;;
20154;SDS011;10238;49.556;10.956;2023-03-03T06:37:23;36.40;;;17.48;;
20154;SDS011;10238;49.556;10.956;2023-03-03T06:40:13;38.83;;;17.77;;
20154;SDS011;10238;49.556;10.956;2023-03-03T06:43:01;41.67;;;18.05;;
20154;SDS011;10238;49.556;10.956;2023-03-03T06:45:49;45.75;;;19.00;;
20154;SDS011;10238;49.556;10.956;2023-03-03T06:48:37;44.08;;;19.48;;
20154;SDS011;10238;49.556;10.956;2023-03-03T06:51:29;47.70;;;21.42;;
20154;SDS011;10238;49.556;10.956;2023-03-03T06:54:20;53.63;;;21.63;;
20154;SDS011;10238;49.556;10.956;2023-03-03T06:57:19;47.67;;;21.38;;
20154;SDS011;10238;49.556;10.956;2023-03-03T07:00:13;52.50;;;21.92;;
20154;SDS011;10238;49.556;10.956;2023-03-03T07:03:06;50.88;;;21.20;;
20154;SDS011;10238;49.556;10.956;2023-03-03T07:05:59;49.47;;;20.58;;
20154;SDS011;10238;49.556;10.956;2023-03-03T07:08:51;43.40;;;20.30;;
20154;SDS011;10238;49.556;10.956;2023-03-03T07:11:41;50.10;;;20.13;;
20154;SDS011;10238;49.556;10.956;2023-03-03T07:14:32;45.78;;;19.50;;
20154;SDS011;10238;49.556;10.956;2023-03-03T07:17:23;44.30;;;19.83;;
20154;SDS011;10238;49.556;10.956;2023-03-03T07:20:14;51.08;;;20.73;;
20154;SDS011;10238;49.556;10.956;2023-03-03T07:23:09;43.72;;;19.45;;
20154;SDS011;10238;49.556;10.956;2023-03-03T07:26:07;49.67;;;20.73;;
20154;SDS011;10238;49.556;10.956;2023-03-03T07:28:57;45.20;;;19.17;;
20154;SDS011;10238;49.556;10.956;2023-03-03T07:31:49;42.05;;;20.77;;
20154;SDS011;10238;49.556;10.956;2023-03-03T07:34:38;51.80;;;22.52;;
20154;SDS011;10238;49.556;10.956;2023-03-03T07:37:30;46.50;;;19.90;;
20154;SDS011;10238;49.556;10.956;2023-03-03T07:40:28;46.58;;;19.73;;
20154;SDS011;10238;49.556;10.956;2023-03-03T07:43:25;43.97;;;19.23;;
20154;SDS011;10238;49.556;10.956;2023-03-03T07:46:21;41.50;;;19.50;;
20154;SDS011;10238;49.556;10.956;2023-03-03T07:49:21;44.53;;;19.90;;
20154;SDS011;10238;49.556;10.956;2023-03-03T07:52:22;43.30;;;19.73;;
20154;SDS011;10238;49.556;10.956;2023-03-03T07:55:20;41.90;;;19.25;;
20154;SDS011;10238;49.556;10.956;2023-03-03T07:58:20;40.17;;;19.00;;
20154;SDS011;10238;49.556;10.956;2023-03-03T08:01:23;49.78;;;20.15;;
20154;SDS011;10238;49.556;10.956;2023-03-03T08:04:28;46.60;;;20.13;;
20154;SDS011;10238;49.556;10.956;2023-03-03T08:07:23;42.22;;;19.30;;
20154;SDS011;10238;49.556;10.956;2023-03-03T08:10:25;51.85;;;22.15;;
20154;SDS011;10238;49.556;10.956;2023-03-03T08:13:22;42.92;;;19.88;;
20154;SDS011;10238;49.556;10.956;2023-03-03T08:16:20;45.05;;;19.52;;
20154;SDS011;10238;49.556;10.956;2023-03-03T08:19:16;43.40;;;19.90;;
20154;SDS011;10238;49.556;10.956;2023-03-03T08:22:11;47.63;;;20.17;;
20154;SDS011;10238;49.556;10.956;2023-03-03T08:25:02;47.00;;;19.95;;
20154;SDS011;10238;49.556;10.956;2023-03-03T08:27:50;41.58;;;19.58;;
20154;SDS011;10238;49.556;10.956;2023-03-03T08:30:38;46.70;;;20.00;;
20154;SDS011;10238;49.556;10.956;2023-03-03T08:33:27;40.92;;;18.48;;
20154;SDS011;10238;49.556;10.956;2023-03-03T08:36:15;44.75;;;20.10;;
20154;SDS011;10238;49.556;10.956;2023-03-03T08:39:04;46.17;;;20.08;;
20154;SDS011;10238;49.556;10.956;2023-03-03T08:41:54;41.20;;;19.55;;
20154;SDS011;10238;49.556;10.956;2023-03-03T08:44:42;42.47;;;19.17;;
20154;SDS011;10238;49.556;10.956;2023-03-03T08:47:30;42.10;;;19.52;;
20154;SDS011;10238;49.556;10.956;2023-03-03T08:50:18;42.38;;;18.38;;
20154;SDS011;10238;49.556;10.956;2023-03-03T08:53:07;44.35;;;19.98;;
20154;SDS011;10238;49.556;10.956;2023-03-03T08:55:57;43.17;;;19.42;;
20154;SDS011;10238;49.556;10.956;2023-03-03T08:58:45;42.80;;;19.40;;
20154;SDS011;10238;49.556;10.956;2023-03-03T09:04:37;37.72;;;18.33;;
20154;SDS011;10238;49.556;10.956;2023-03-03T09:07:25;41.72;;;18.35;;
20154;SDS011;10238;49.556;10.956;2023-03-03T09:10:14;43.45;;;19.95;;
20154;SDS011;10238;49.556;10.956;2023-03-03T09:13:06;45.00;;;19.58;;
20154;SDS011;10238;49.556;10.956;2023-03-03T09:15:59;42.60;;;20.75;;
20154;SDS011;10238;49.556;10.956;2023-03-03T09:18:47;40.75;;;19.05;;
20154;SDS011;10238;49.556;10.956;2023-03-03T09:21:35;41.20;;;18.10;;
20154;SDS011;10238;49.556;10.956;2023-03-03T09:24:24;38.55;;;19.23;;
20154;SDS011;10238;49.556;10.956;2023-03-03T09:27:14;41.88;;;18.90;;
20154;SDS011;10238;49.556;10.956;2023-03-03T09:30:14;37.53;;;17.85;;
20154;SDS011;10238;49.556;10.956;2023-03-03T09:33:25;37.25;;;17.85;;
20154;SDS011;10238;49.556;10.956;2023-03-03T09:36:18;37.10;;;17.48;;
20154;SDS011;10238;49.556;10.956;2023-03-03T09:39:11;39.55;;;19.20;;
20154;SDS011;10238;49.556;10.956;2023-03-03T09:45:28;38.28;;;18.35;;
20154;SDS011;10238;49.556;10.956;2023-03-03T09:48:39;39.35;;;18.30;;
20154;SDS011;10238;49.556;10.956;2023-03-03T09:54:52;36.38;;;18.83;;
20154;SDS011;10238;49.556;10.956;2023-03-03T09:57:54;39.17;;;18.90;;
20154;SDS011;10238;49.556;10.956;2023-03-03T10:01:00;35.15;;;18.20;;
20154;SDS011;10238;49.556;10.956;2023-03-03T10:07:26;34.33;;;17.05;;
20154;SDS011;10238;49.556;10.956;2023-03-03T10:10:28;31.85;;;16.73;;
20154;SDS011;10238;49.556;10.956;2023-03-03T10:20:11;35.13;;;16.00;;
20154;SDS011;10238;49.556;10.956;2023-03-03T10:23:39;34.58;;;16.73;;
20154;SDS011;10238;49.556;10.956;2023-03-03T10:26:49;34.80;;;16.92;;
20154;SDS011;10238;49.556;10.956;2023-03-03T10:29:59;32.25;;;17.42;;
20154;SDS011;10238;49.556;10.956;2023-03-03T10:32:57;32.33;;;16.00;;
20154;SDS011;10238;49.556;10.956;2023-03-03T10:36:01;31.92;;;16.92;;
20154;SDS011;10238;49.556;10.956;2023-03-03T10:39:06;31.50;;;18.08;;
20154;SDS011;10238;49.556;10.956;2023-03-03T10:42:12;27.15;;;15.07;;
20154;SDS011;10238;49.556;10.956;2023-03-03T10:45:27;29.38;;;16.75;;
20154;SDS011;10238;49.556;10.956;2023-03-03T10:48:31;27.90;;;14.93;;
20154;SDS011;10238;49.556;10.956;2023-03-03T10:51:32;30.35;;;15.30;;
20154;SDS011;10238;49.556;10.956;2023-03-03T10:54:37;29.98;;;14.75;;
20154;SDS011;10238;49.556;10.956;2023-03-03T10:57:44;30.55;;;15.20;;
20154;SDS011;10238;49.556;10.956;2023-03-03T11:00:44;26.55;;;14.52;;
20154;SDS011;10238;49.556;10.956;2023-03-03T11:03:52;28.75;;;15.68;;
20154;SDS011;10238;49.556;10.956;2023-03-03T11:07:08;28.63;;;14.40;;
20154;SDS011;10238;49.556;10.956;2023-03-03T11:10:02;25.10;;;14.63;;
20154;SDS011;10238;49.556;10.956;2023-03-03T11:13:03;24.15;;;13.13;;
20154;SDS011;10238;49.556;10.956;2023-03-03T11:16:01;23.02;;;13.02;;
20154;SDS011;10238;49.556;10.956;2023-03-03T11:19:05;27.73;;;16.33;;
20154;SDS011;10238;49.556;10.956;2023-03-03T11:22:14;24.10;;;15.20;;
20154;SDS011;10238;49.556;10.956;2023-03-03T11:25:15;23.42;;;15.43;;
20154;SDS011;10238;49.556;10.956;2023-03-03T11:28:15;25.13;;;15.18;;
20154;SDS011;10238;49.556;10.956;2023-03-03T11:31:16;22.02;;;14.68;;
20154;SDS011;10238;49.556;10.956;2023-03-03T11:34:20;21.15;;;13.15;;
20154;SDS011;10238;49.556;10.956;2023-03-03T11:37:34;21.75;;;13.23;;
20154;SDS011;10238;49.556;10.956;2023-03-03T11:40:26;19.60;;;13.02;;
20154;SDS011;10238;49.556;10.956;2023-03-03T11:43:24;19.42;;;12.55;;
20154;SDS011;10238;49.556;10.956;2023-03-03T11:46:23;20.10;;;12.77;;
20154;SDS011;10238;49.556;10.956;2023-03-03T11:49:19;17.33;;;11.27;;
20154;SDS011;10238;49.556;10.956;2023-03-03T11:52:17;18.48;;;12.25;;
20154;SDS011;10238;49.556;10.956;2023-03-03T11:55:11;16.17;;;12.40;;
20154;SDS011;10238;49.556;10.956;2023-03-03T11:58:07;18.13;;;16.17;;
20154;SDS011;10238;49.556;10.956;2023-03-03T12:01:00;21.05;;;17.63;;
20154;SDS011;10238;49.556;10.956;2023-03-03T12:03:56;19.27;;;16.38;;
20154;SDS011;10238;49.556;10.956;2023-03-03T12:06:54;16.17;;;12.38;;
20154;SDS011;10238;49.556;10.956;2023-03-03T12:10:11;16.58;;;10.82;;
20154;SDS011;10238;49.556;10.956;2023-03-03T12:13:08;14.63;;;10.48;;
20154;SDS011;10238;49.556;10.956;2023-03-03T12:16:06;17.40;;;11.70;;
20154;SDS011;10238;49.556;10.956;2023-03-03T12:19:10;19.83;;;13.38;;
20154;SDS011;10238;49.556;10.956;2023-03-03T12:22:26;20.30;;;14.23;;
20154;SDS011;10238;49.556;10.956;2023-03-03T12:25:24;18.52;;;13.05;;
20154;SDS011;10238;49.556;10.956;2023-03-03T12:28:19;15.93;;;14.30;;
20154;SDS011;10238;49.556;10.956;2023-03-03T12:31:16;16.25;;;12.52;;
20154;SDS011;10238;49.556;10.956;2023-03-03T12:34:17;15.98;;;12.52;;
20154;SDS011;10238;49.556;10.956;2023-03-03T12:37:19;15.65;;;11.70;;
20154;SDS011;10238;49.556;10.956;2023-03-03T12:40:14;14.25;;;10.40;;
20154;SDS011;10238;49.556;10.956;2023-03-03T12:43:09;13.20;;;9.75;;
20154;SDS011;10238;49.556;10.956;2023-03-03T12:46:14;14.10;;;10.20;;
20154;SDS011;10238;49.556;10.956;2023-03-03T12:49:13;15.90;;;10.13;;
20154;SDS011;10238;49.556;10.956;2023-03-03T12:52:04;16.20;;;10.55;;
20154;SDS011;10238;49.556;10.956;2023-03-03T12:55:03;16.60;;;10.38;;
20154;SDS011;10238;49.556;10.956;2023-03-03T12:58:03;13.93;;;9.52;;
20154;SDS011;10238;49.556;10.956;2023-03-03T13:01:03;15.15;;;10.43;;
20154;SDS011;10238;49.556;10.956;2023-03-03T13:04:02;14.27;;;8.82;;
20154;SDS011;10238;49.556;10.956;2023-03-03T13:06:58;14.43;;;8.98;;
20154;SDS011;10238;49.556;10.956;2023-03-03T13:09:56;17.98;;;10.65;;
20154;SDS011;10238;49.556;10.956;2023-03-03T13:12:56;14.85;;;10.35;;
20154;SDS011;10238;49.556;10.956;2023-03-03T13:15:52;15.90;;;9.48;;
20154;SDS011;10238;49.556;10.956;2023-03-03T13:18:52;12.70;;;9.18;;
20154;SDS011;10238;49.556;10.956;2023-03-03T13:21:46;20.55;;;11.85;;
20154;SDS011;10238;49.556;10.956;2023-03-03T13:24:44;13.98;;;10.48;;
20154;SDS011;10238;49.556;10.956;2023-03-03T13:27:44;15.80;;;11.65;;
20154;SDS011;10238;49.556;10.956;2023-03-03T13:30:36;15.90;;;10.65;;
20154;SDS011;10238;49.556;10.956;2023-03-03T13:33:33;17.20;;;12.13;;
20154;SDS011;10238;49.556;10.956;2023-03-03T13:36:22;17.10;;;11.32;;
20154;SDS011;10238;49.556;10.956;2023-03-03T13:39:17;13.77;;;10.90;;
20154;SDS011;10238;49.556;10.956;2023-03-03T13:42:10;15.68;;;12.90;;
20154;SDS011;10238;49.556;10.956;2023-03-03T13:45:12;20.90;;;14.23;;
20154;SDS011;10238;49.556;10.956;2023-03-03T13:48:06;20.02;;;14.52;;
20154;SDS011;10238;49.556;10.956;2023-03-03T13:51:02;16.20;;;10.85;;
20154;SDS011;10238;49.556;10.956;2023-03-03T13:54:02;14.68;;;9.07;;
20154;SDS011;10238;49.556;10.956;2023-03-03T13:57:14;13.73;;;10.32;;
20154;SDS011;10238;49.556;10.956;2023-03-03T14:00:23;15.95;;;10.13;;
20154;SDS011;10238;49.556;10.956;2023-03-03T14:03:30;18.05;;;10.25;;
20154;SDS011;10238;49.556;10.956;2023-03-03T14:06:28;18.33;;;13.32;;
20154;SDS011;10238;49.556;10.956;2023-03-03T14:09:38;15.98;;;13.82;;
20154;SDS011;10238;49.556;10.956;2023-03-03T14:12:41;13.52;;;10.93;;
20154;SDS011;10238;49.556;10.956;2023-03-03T14:15:37;17.10;;;13.82;;
20154;SDS011;10238;49.556;10.956;2023-03-03T14:18:36;17.52;;;12.15;;
20154;SDS011;10238;49.556;10.956;2023-03-03T14:21:34;16.33;;;12.23;;
20154;SDS011;10238;49.556;10.956;2023-03-03T14:24:27;17.60;;;13.02;;
20154;SDS011;10238;49.556;10.956;2023-03-03T14:27:20;15.60;;;9.57;;
20154;SDS011;10238;49.556;10.956;2023-03-03T14:30:23;14.27;;;9.00;;
20154;SDS011;10238;49.556;10.956;2023-03-03T14:33:20;15.52;;;9.52;;
20154;SDS011;10238;49.556;10.956;2023-03-03T14:36:12;18.73;;;10.98;;
20154;SDS011;10238;49.556;10.956;2023-03-03T14:39:07;15.00;;;9.90;;
20154;SDS011;10238;49.556;10.956;2023-03-03T14:42:29;17.30;;;10.57;;
20154;SDS011;10238;49.556;10.956;2023-03-03T14:45:20;15.97;;;9.40;;
20154;SDS011;10238;49.556;10.956;2023-03-03T14:48:17;14.95;;;9.20;;
20154;SDS011;10238;49.556;10.956;2023-03-03T14:51:16;17.60;;;9.65;;
20154;SDS011;10238;49.556;10.956;2023-03-03T14:54:18;16.83;;;9.73;;
20154;SDS011;10238;49.556;10.956;2023-03-03T14:57:11;12.80;;;8.70;;
20154;SDS011;10238;49.556;10.956;2023-03-03T15:00:04;13.85;;;8.43;;
20154;SDS011;10238;49.556;10.956;2023-03-03T15:03:17;15.73;;;8.88;;
20154;SDS011;10238;49.556;10.956;2023-03-03T15:06:09;13.60;;;8.70;;
20154;SDS011;10238;49.556;10.956;2023-03-03T15:12:21;19.65;;;9.98;;
20154;SDS011;10238;49.556;10.956;2023-03-03T15:15:16;13.85;;;9.00;;
20154;SDS011;10238;49.556;10.956;2023-03-03T15:18:08;14.52;;;9.68;;
20154;SDS011;10238;49.556;10.956;2023-03-03T15:20:59;14.23;;;8.82;;
20154;SDS011;10238;49.556;10.956;2023-03-03T15:23:51;13.98;;;9.02;;
20154;SDS011;10238;49.556;10.956;2023-03-03T15:26:47;11.85;;;7.93;;
20154;SDS011;10238;49.556;10.956;2023-03-03T15:29:44;13.30;;;8.50;;
20154;SDS011;10238;49.556;10.956;2023-03-03T15:32:42;13.80;;;8.73;;
20154;SDS011;10238;49.556;10.956;2023-03-03T15:35:41;13.40;;;8.15;;
20154;SDS011;10238;49.556;10.956;2023-03-03T15:38:44;14.38;;;8.27;;
20154;SDS011;10238;49.556;10.956;2023-03-03T15:41:42;15.25;;;8.55;;
20154;SDS011;10238;49.556;10.956;2023-03-03T15:44:40;14.20;;;8.18;;
20154;SDS011;10238;49.556;10.956;2023-03-03T15:47:45;15.25;;;7.95;;
20154;SDS011;10238;49.556;10.956;2023-03-03T15:50:54;11.98;;;8.35;;
20154;SDS011;10238;49.556;10.956;2023-03-03T15:53:56;13.07;;;7.53;;
20154;SDS011;10238;49.556;10.956;2023-03-03T15:57:00;13.70;;;7.88;;
20154;SDS011;10238;49.556;10.956;2023-03-03T16:00:04;11.10;;;7.43;;
20154;SDS011;10238;49.556;10.956;2023-03-03T16:03:04;10.98;;;7.25;;
20154;SDS011;10238;49.556;10.956;2023-03-03T16:06:00;12.07;;;7.03;;
20154;SDS011;10238;49.556;10.956;2023-03-03T16:08:53;10.85;;;6.50;;
20154;SDS011;10238;49.556;10.956;2023-03-03T16:11:48;10.95;;;6.93;;
20154;SDS011;10238;49.556;10.956;2023-03-03T16:14:46;11.50;;;6.30;;
20154;SDS011;10238;49.556;10.956;2023-03-03T16:17:50;11.40;;;6.90;;
20154;SDS011;10238;49.556;10.956;2023-03-03T16:20:46;9.65;;;5.90;;
20154;SDS011;10238;49.556;10.956;2023-03-03T16:23:49;7.75;;;5.53;;
20154;SDS011;10238;49.556;10.956;2023-03-03T16:26:42;7.47;;;5.45;;
20154;SDS011;10238;49.556;10.956;2023-03-03T16:29:41;7.50;;;4.50;;
20154;SDS011;10238;49.556;10.956;2023-03-03T16:32:39;8.02;;;4.47;;
20154;SDS011;10238;49.556;10.956;2023-03-03T16:35:32;6.72;;;4.45;;
20154;SDS011;10238;49.556;10.956;2023-03-03T16:38:25;10.90;;;5.05;;
20154;SDS011;10238;49.556;10.956;2023-03-03T16:41:18;10.35;;;4.95;;
20154;SDS011;10238;49.556;10.956;2023-03-03T16:44:24;8.18;;;4.80;;
20154;SDS011;10238;49.556;10.956;2023-03-03T16:47:26;8.13;;;7.32;;
20154;SDS011;10238;49.556;10.956;2023-03-03T16:50:25;9.82;;;5.35;;
20154;SDS011;10238;49.556;10.956;2023-03-03T16:53:22;8.53;;;4.97;;
20154;SDS011;10238;49.556;10.956;2023-03-03T16:56:24;6.38;;;4.63;;
20154;SDS011;10238;49.556;10.956;2023-03-03T16:59:24;7.03;;;5.05;;
20154;SDS011;10238;49.556;10.956;2023-03-03T17:06:09;9.15;;;5.80;;
20154;SDS011;10238;49.556;10.956;2023-03-03T17:09:11;7.10;;;5.88;;
20154;SDS011;10238;49.556;10.956;2023-03-03T17:12:27;7.22;;;5.85;;
20154;SDS011;10238;49.556;10.956;2023-03-03T17:15:30;9.80;;;5.38;;
20154;SDS011;10238;49.556;10.956;2023-03-03T17:18:34;8.18;;;5.75;;
20154;SDS011;10238;49.556;10.956;2023-03-03T17:21:32;7.00;;;4.00;;